Pershing, Iowa
Current Conditions -  °F | °C
As of 10:55 AM on Thursday 27 Nov 2014 (Local Time) from KOXV Reporting Station
Clear Clear  
Wind Chill: -6°   Ceiling: Unl
Heat Index:   Visibility: 10mi
Dew Point: -2°   Wind: 8mph
Humidity: 67%   Direction: 300°WNW
Pressure: 30.53"   Gusts: NA
Location:  41.3041°N, 93.0961°W
Report Text: KOXV 271655Z AUTO 30007KT 10SM CLR M14/M19 A3053 RMK AO2
Loading
Personal Weather Stations






























Interactive Weather Map New forecast layout! Learn more

10-Day Weather Forecast

Advertisements
Track Severe Weather on mobile